sensor_id;sensor_type;location;lat;lon;timestamp;P1;durP1;ratioP1;P2;durP2;ratioP2
23418;SDS011;11882;42.522;27.458;2024-01-15T00:01:06;2.30;;;2.10;;
23418;SDS011;11882;42.522;27.458;2024-01-15T00:03:34;3.50;;;2.00;;
23418;SDS011;11882;42.522;27.458;2024-01-15T00:06:03;3.43;;;3.10;;
23418;SDS011;11882;42.522;27.458;2024-01-15T00:08:30;1.50;;;1.40;;
23418;SDS011;11882;42.522;27.458;2024-01-15T00:10:57;1.93;;;1.83;;
23418;SDS011;11882;42.522;27.458;2024-01-15T00:13:24;3.00;;;2.70;;
23418;SDS011;11882;42.522;27.458;2024-01-15T00:15:52;7.43;;;2.77;;
23418;SDS011;11882;42.522;27.458;2024-01-15T00:18:19;1.53;;;1.47;;
23418;SDS011;11882;42.522;27.458;2024-01-15T00:20:46;1.53;;;1.43;;
23418;SDS011;11882;42.522;27.458;2024-01-15T00:23:15;9.43;;;4.37;;
23418;SDS011;11882;42.522;27.458;2024-01-15T00:25:42;3.17;;;2.77;;
23418;SDS011;11882;42.522;27.458;2024-01-15T00:28:09;3.57;;;3.37;;
23418;SDS011;11882;42.522;27.458;2024-01-15T00:30:36;2.63;;;2.40;;
23418;SDS011;11882;42.522;27.458;2024-01-15T00:33:04;4.53;;;3.07;;
23418;SDS011;11882;42.522;27.458;2024-01-15T00:35:31;6.70;;;1.90;;
23418;SDS011;11882;42.522;27.458;2024-01-15T00:37:58;2.70;;;1.47;;
23418;SDS011;11882;42.522;27.458;2024-01-15T00:40:27;1.90;;;1.63;;
23418;SDS011;11882;42.522;27.458;2024-01-15T00:42:54;4.13;;;1.87;;
23418;SDS011;11882;42.522;27.458;2024-01-15T00:45:21;1.67;;;1.57;;
23418;SDS011;11882;42.522;27.458;2024-01-15T00:47:48;3.20;;;2.90;;
23418;SDS011;11882;42.522;27.458;2024-01-15T00:50:15;1.43;;;1.33;;
23418;SDS011;11882;42.522;27.458;2024-01-15T00:52:42;0.10;;;0.10;;
23418;SDS011;11882;42.522;27.458;2024-01-15T00:55:10;1.33;;;1.20;;
23418;SDS011;11882;42.522;27.458;2024-01-15T00:57:39;5.43;;;1.40;;
23418;SDS011;11882;42.522;27.458;2024-01-15T01:00:06;1.77;;;0.97;;
23418;SDS011;11882;42.522;27.458;2024-01-15T01:02:34;1.63;;;0.70;;
23418;SDS011;11882;42.522;27.458;2024-01-15T01:05:01;3.30;;;1.77;;
23418;SDS011;11882;42.522;27.458;2024-01-15T01:07:28;3.47;;;1.37;;
23418;SDS011;11882;42.522;27.458;2024-01-15T01:09:56;2.13;;;2.03;;
23418;SDS011;11882;42.522;27.458;2024-01-15T01:12:23;4.30;;;1.57;;
23418;SDS011;11882;42.522;27.458;2024-01-15T01:14:52;2.43;;;1.70;;
23418;SDS011;11882;42.522;27.458;2024-01-15T01:17:19;1.60;;;1.50;;
23418;SDS011;11882;42.522;27.458;2024-01-15T01:19:46;4.17;;;2.10;;
23418;SDS011;11882;42.522;27.458;2024-01-15T01:22:13;4.27;;;1.43;;
23418;SDS011;11882;42.522;27.458;2024-01-15T01:24:40;4.73;;;2.90;;
23418;SDS011;11882;42.522;27.458;2024-01-15T01:27:07;3.03;;;1.37;;
23418;SDS011;11882;42.522;27.458;2024-01-15T01:29:34;5.63;;;2.27;;
23418;SDS011;11882;42.522;27.458;2024-01-15T01:32:03;3.73;;;3.27;;
23418;SDS011;11882;42.522;27.458;2024-01-15T01:34:32;2.00;;;1.90;;
23418;SDS011;11882;42.522;27.458;2024-01-15T01:37:06;4.90;;;2.90;;
23418;SDS011;11882;42.522;27.458;2024-01-15T01:39:33;8.63;;;4.80;;
23418;SDS011;11882;42.522;27.458;2024-01-15T01:42:00;2.97;;;1.33;;
23418;SDS011;11882;42.522;27.458;2024-01-15T01:44:28;1.80;;;1.70;;
23418;SDS011;11882;42.522;27.458;2024-01-15T01:46:55;0.23;;;0.23;;
23418;SDS011;11882;42.522;27.458;2024-01-15T01:49:24;1.00;;;1.00;;
23418;SDS011;11882;42.522;27.458;2024-01-15T01:51:53;8.80;;;1.87;;
23418;SDS011;11882;42.522;27.458;2024-01-15T01:54:23;0.60;;;0.60;;
23418;SDS011;11882;42.522;27.458;2024-01-15T01:56:52;0.60;;;0.53;;
23418;SDS011;11882;42.522;27.458;2024-01-15T01:59:19;3.53;;;3.23;;
23418;SDS011;11882;42.522;27.458;2024-01-15T02:01:48;8.00;;;2.10;;
23418;SDS011;11882;42.522;27.458;2024-01-15T02:04:16;0.93;;;0.93;;
23418;SDS011;11882;42.522;27.458;2024-01-15T02:06:46;1.43;;;1.20;;
23418;SDS011;11882;42.522;27.458;2024-01-15T02:09:13;1.13;;;0.93;;
23418;SDS011;11882;42.522;27.458;2024-01-15T02:11:41;1.40;;;1.30;;
23418;SDS011;11882;42.522;27.458;2024-01-15T02:14:08;0.63;;;0.63;;
23418;SDS011;11882;42.522;27.458;2024-01-15T02:16:36;0.67;;;0.67;;
23418;SDS011;11882;42.522;27.458;2024-01-15T02:19:03;4.10;;;2.20;;
23418;SDS011;11882;42.522;27.458;2024-01-15T02:21:31;4.13;;;3.83;;
23418;SDS011;11882;42.522;27.458;2024-01-15T02:23:59;1.37;;;1.27;;
23418;SDS011;11882;42.522;27.458;2024-01-15T02:26:27;1.73;;;1.57;;
23418;SDS011;11882;42.522;27.458;2024-01-15T02:28:54;0.30;;;0.30;;
23418;SDS011;11882;42.522;27.458;2024-01-15T02:31:22;1.70;;;1.60;;
23418;SDS011;11882;42.522;27.458;2024-01-15T02:33:49;0.83;;;0.83;;
23418;SDS011;11882;42.522;27.458;2024-01-15T02:36:16;0.40;;;0.40;;
23418;SDS011;11882;42.522;27.458;2024-01-15T02:38:43;2.57;;;1.93;;
23418;SDS011;11882;42.522;27.458;2024-01-15T02:41:12;2.10;;;1.77;;
23418;SDS011;11882;42.522;27.458;2024-01-15T02:43:39;0.67;;;0.67;;
23418;SDS011;11882;42.522;27.458;2024-01-15T02:46:07;4.30;;;2.80;;
23418;SDS011;11882;42.522;27.458;2024-01-15T02:48:34;2.03;;;1.83;;
23418;SDS011;11882;42.522;27.458;2024-01-15T02:51:01;3.87;;;2.03;;
23418;SDS011;11882;42.522;27.458;2024-01-15T02:53:29;0.77;;;0.37;;
23418;SDS011;11882;42.522;27.458;2024-01-15T02:55:56;2.20;;;1.80;;
23418;SDS011;11882;42.522;27.458;2024-01-15T02:58:24;1.23;;;1.13;;
23418;SDS011;11882;42.522;27.458;2024-01-15T03:00:52;1.50;;;1.40;;
23418;SDS011;11882;42.522;27.458;2024-01-15T03:03:19;0.87;;;0.83;;
23418;SDS011;11882;42.522;27.458;2024-01-15T03:05:46;1.93;;;1.83;;
23418;SDS011;11882;42.522;27.458;2024-01-15T03:08:13;0.67;;;0.67;;
23418;SDS011;11882;42.522;27.458;2024-01-15T03:10:41;0.10;;;0.10;;
23418;SDS011;11882;42.522;27.458;2024-01-15T03:13:08;2.20;;;2.03;;
23418;SDS011;11882;42.522;27.458;2024-01-15T03:15:37;2.13;;;2.03;;
23418;SDS011;11882;42.522;27.458;2024-01-15T03:18:04;0.77;;;0.77;;
23418;SDS011;11882;42.522;27.458;2024-01-15T03:20:32;0.83;;;0.80;;
23418;SDS011;11882;42.522;27.458;2024-01-15T03:22:59;1.53;;;1.20;;
23418;SDS011;11882;42.522;27.458;2024-01-15T03:25:27;0.53;;;0.53;;
23418;SDS011;11882;42.522;27.458;2024-01-15T03:27:54;0.77;;;0.70;;
23418;SDS011;11882;42.522;27.458;2024-01-15T03:30:21;1.13;;;1.13;;
23418;SDS011;11882;42.522;27.458;2024-01-15T03:32:49;2.47;;;2.20;;
23418;SDS011;11882;42.522;27.458;2024-01-15T03:35:17;2.47;;;2.27;;
23418;SDS011;11882;42.522;27.458;2024-01-15T03:37:44;0.43;;;0.43;;
23418;SDS011;11882;42.522;27.458;2024-01-15T03:40:11;2.23;;;2.13;;
23418;SDS011;11882;42.522;27.458;2024-01-15T03:42:39;1.60;;;1.53;;
23418;SDS011;11882;42.522;27.458;2024-01-15T03:45:06;2.13;;;1.93;;
23418;SDS011;11882;42.522;27.458;2024-01-15T03:47:34;2.20;;;1.07;;
23418;SDS011;11882;42.522;27.458;2024-01-15T03:50:02;1.03;;;1.03;;
23418;SDS011;11882;42.522;27.458;2024-01-15T03:52:30;8.30;;;6.43;;
23418;SDS011;11882;42.522;27.458;2024-01-15T03:54:57;1.37;;;1.23;;
23418;SDS011;11882;42.522;27.458;2024-01-15T03:57:24;5.20;;;2.17;;
23418;SDS011;11882;42.522;27.458;2024-01-15T03:59:51;1.93;;;1.83;;
23418;SDS011;11882;42.522;27.458;2024-01-15T04:02:19;6.60;;;3.90;;
23418;SDS011;11882;42.522;27.458;2024-01-15T04:04:46;0.87;;;0.87;;
23418;SDS011;11882;42.522;27.458;2024-01-15T04:07:14;1.53;;;1.43;;
23418;SDS011;11882;42.522;27.458;2024-01-15T04:09:42;1.20;;;1.10;;
23418;SDS011;11882;42.522;27.458;2024-01-15T04:12:09;2.60;;;2.10;;
23418;SDS011;11882;42.522;27.458;2024-01-15T04:14:36;0.43;;;0.43;;
23418;SDS011;11882;42.522;27.458;2024-01-15T04:17:03;0.83;;;0.83;;
23418;SDS011;11882;42.522;27.458;2024-01-15T04:19:31;9.17;;;2.97;;
23418;SDS011;11882;42.522;27.458;2024-01-15T04:21:58;3.00;;;1.50;;
23418;SDS011;11882;42.522;27.458;2024-01-15T04:24:26;0.20;;;0.20;;
23418;SDS011;11882;42.522;27.458;2024-01-15T04:26:54;2.83;;;1.50;;
23418;SDS011;11882;42.522;27.458;2024-01-15T04:29:21;0.60;;;0.60;;
23418;SDS011;11882;42.522;27.458;2024-01-15T04:31:48;1.13;;;1.13;;
23418;SDS011;11882;42.522;27.458;2024-01-15T04:34:15;5.97;;;1.33;;
23418;SDS011;11882;42.522;27.458;2024-01-15T04:36:42;3.60;;;3.40;;
23418;SDS011;11882;42.522;27.458;2024-01-15T04:39:09;0.63;;;0.63;;
23418;SDS011;11882;42.522;27.458;2024-01-15T04:41:38;0.30;;;0.30;;
23418;SDS011;11882;42.522;27.458;2024-01-15T04:44:05;0.73;;;0.70;;
23418;SDS011;11882;42.522;27.458;2024-01-15T04:46:33;1.10;;;1.03;;
23418;SDS011;11882;42.522;27.458;2024-01-15T04:49:00;2.97;;;1.87;;
23418;SDS011;11882;42.522;27.458;2024-01-15T04:51:27;0.57;;;0.53;;
23418;SDS011;11882;42.522;27.458;2024-01-15T04:53:54;1.13;;;1.03;;
23418;SDS011;11882;42.522;27.458;2024-01-15T04:56:21;1.07;;;1.07;;
23418;SDS011;11882;42.522;27.458;2024-01-15T04:58:50;0.90;;;0.80;;
23418;SDS011;11882;42.522;27.458;2024-01-15T05:01:17;0.80;;;0.80;;
23418;SDS011;11882;42.522;27.458;2024-01-15T05:03:44;1.30;;;1.20;;
23418;SDS011;11882;42.522;27.458;2024-01-15T05:06:11;1.27;;;1.17;;
23418;SDS011;11882;42.522;27.458;2024-01-15T05:08:39;3.03;;;2.73;;
23418;SDS011;11882;42.522;27.458;2024-01-15T05:11:06;0.20;;;0.20;;
23418;SDS011;11882;42.522;27.458;2024-01-15T05:13:33;3.17;;;1.50;;
23418;SDS011;11882;42.522;27.458;2024-01-15T05:16:16;0.63;;;0.53;;
23418;SDS011;11882;42.522;27.458;2024-01-15T05:18:43;5.87;;;1.40;;
23418;SDS011;11882;42.522;27.458;2024-01-15T05:21:10;2.33;;;1.00;;
23418;SDS011;11882;42.522;27.458;2024-01-15T05:23:37;1.10;;;1.10;;
23418;SDS011;11882;42.522;27.458;2024-01-15T05:26:04;1.80;;;1.40;;
23418;SDS011;11882;42.522;27.458;2024-01-15T05:28:31;1.20;;;1.00;;
23418;SDS011;11882;42.522;27.458;2024-01-15T05:30:58;0.57;;;0.57;;
23418;SDS011;11882;42.522;27.458;2024-01-15T05:33:28;2.70;;;1.33;;
23418;SDS011;11882;42.522;27.458;2024-01-15T05:35:55;3.03;;;2.77;;
23418;SDS011;11882;42.522;27.458;2024-01-15T05:38:24;1.70;;;1.07;;
23418;SDS011;11882;42.522;27.458;2024-01-15T05:40:51;2.03;;;1.93;;
23418;SDS011;11882;42.522;27.458;2024-01-15T05:43:18;1.50;;;1.40;;
23418;SDS011;11882;42.522;27.458;2024-01-15T05:45:45;7.00;;;3.30;;
23418;SDS011;11882;42.522;27.458;2024-01-15T05:48:13;1.97;;;1.50;;
23418;SDS011;11882;42.522;27.458;2024-01-15T05:50:41;2.27;;;2.17;;
23418;SDS011;11882;42.522;27.458;2024-01-15T05:53:09;0.37;;;0.37;;
23418;SDS011;11882;42.522;27.458;2024-01-15T05:55:36;1.27;;;0.97;;
23418;SDS011;11882;42.522;27.458;2024-01-15T05:58:20;8.10;;;7.00;;
23418;SDS011;11882;42.522;27.458;2024-01-15T06:00:47;3.87;;;3.23;;
23418;SDS011;11882;42.522;27.458;2024-01-15T06:03:15;1.80;;;0.60;;
23418;SDS011;11882;42.522;27.458;2024-01-15T06:05:43;3.50;;;3.30;;
23418;SDS011;11882;42.522;27.458;2024-01-15T06:08:11;1.73;;;1.13;;
23418;SDS011;11882;42.522;27.458;2024-01-15T06:10:39;2.47;;;1.80;;
23418;SDS011;11882;42.522;27.458;2024-01-15T06:13:07;2.47;;;1.50;;
23418;SDS011;11882;42.522;27.458;2024-01-15T06:15:34;2.63;;;1.47;;
23418;SDS011;11882;42.522;27.458;2024-01-15T06:18:01;2.53;;;2.33;;
23418;SDS011;11882;42.522;27.458;2024-01-15T06:20:28;1.07;;;0.93;;
23418;SDS011;11882;42.522;27.458;2024-01-15T06:22:57;1.90;;;1.53;;
23418;SDS011;11882;42.522;27.458;2024-01-15T06:25:24;2.40;;;2.23;;
23418;SDS011;11882;42.522;27.458;2024-01-15T06:27:51;0.67;;;0.50;;
23418;SDS011;11882;42.522;27.458;2024-01-15T06:30:18;4.63;;;2.63;;
23418;SDS011;11882;42.522;27.458;2024-01-15T06:32:45;0.93;;;0.93;;
23418;SDS011;11882;42.522;27.458;2024-01-15T06:35:13;2.77;;;2.57;;
23418;SDS011;11882;42.522;27.458;2024-01-15T06:37:40;3.70;;;3.50;;
23418;SDS011;11882;42.522;27.458;2024-01-15T06:40:09;2.10;;;1.83;;
23418;SDS011;11882;42.522;27.458;2024-01-15T06:42:36;1.93;;;1.13;;
23418;SDS011;11882;42.522;27.458;2024-01-15T06:45:04;1.73;;;1.60;;
23418;SDS011;11882;42.522;27.458;2024-01-15T06:47:32;4.97;;;2.80;;
23418;SDS011;11882;42.522;27.458;2024-01-15T06:49:59;6.23;;;1.50;;
23418;SDS011;11882;42.522;27.458;2024-01-15T06:52:26;4.07;;;2.47;;
23418;SDS011;11882;42.522;27.458;2024-01-15T06:54:53;1.63;;;0.93;;
23418;SDS011;11882;42.522;27.458;2024-01-15T06:57:22;2.03;;;1.60;;
23418;SDS011;11882;42.522;27.458;2024-01-15T06:59:49;0.63;;;0.63;;
23418;SDS011;11882;42.522;27.458;2024-01-15T07:02:16;4.97;;;2.57;;
23418;SDS011;11882;42.522;27.458;2024-01-15T07:04:43;2.80;;;2.60;;
23418;SDS011;11882;42.522;27.458;2024-01-15T07:07:10;3.07;;;2.20;;
23418;SDS011;11882;42.522;27.458;2024-01-15T07:09:38;2.30;;;2.20;;
23418;SDS011;11882;42.522;27.458;2024-01-15T07:12:05;4.80;;;1.70;;
23418;SDS011;11882;42.522;27.458;2024-01-15T07:14:34;4.73;;;1.83;;
23418;SDS011;11882;42.522;27.458;2024-01-15T07:17:01;1.57;;;1.47;;
23418;SDS011;11882;42.522;27.458;2024-01-15T07:19:28;2.07;;;1.97;;
23418;SDS011;11882;42.522;27.458;2024-01-15T07:21:55;5.47;;;1.33;;
23418;SDS011;11882;42.522;27.458;2024-01-15T07:24:22;4.23;;;2.83;;
23418;SDS011;11882;42.522;27.458;2024-01-15T07:26:49;3.50;;;2.83;;
23418;SDS011;11882;42.522;27.458;2024-01-15T07:29:17;2.77;;;2.47;;
23418;SDS011;11882;42.522;27.458;2024-01-15T07:31:49;5.27;;;4.33;;
23418;SDS011;11882;42.522;27.458;2024-01-15T07:34:16;3.67;;;2.23;;
23418;SDS011;11882;42.522;27.458;2024-01-15T07:36:44;5.93;;;3.23;;
23418;SDS011;11882;42.522;27.458;2024-01-15T07:39:11;4.27;;;3.03;;
23418;SDS011;11882;42.522;27.458;2024-01-15T07:41:38;3.30;;;1.27;;
23418;SDS011;11882;42.522;27.458;2024-01-15T07:44:06;8.07;;;6.23;;
23418;SDS011;11882;42.522;27.458;2024-01-15T07:46:33;0.57;;;0.57;;
23418;SDS011;11882;42.522;27.458;2024-01-15T07:49:02;1.33;;;1.23;;
23418;SDS011;11882;42.522;27.458;2024-01-15T07:51:30;2.53;;;1.50;;
23418;SDS011;11882;42.522;27.458;2024-01-15T07:53:57;3.07;;;2.37;;
23418;SDS011;11882;42.522;27.458;2024-01-15T07:56:25;1.57;;;1.27;;
23418;SDS011;11882;42.522;27.458;2024-01-15T07:58:52;8.30;;;3.13;;
23418;SDS011;11882;42.522;27.458;2024-01-15T08:01:19;6.50;;;3.70;;
23418;SDS011;11882;42.522;27.458;2024-01-15T08:03:47;3.20;;;3.00;;
23418;SDS011;11882;42.522;27.458;2024-01-15T08:06:16;2.73;;;2.07;;
23418;SDS011;11882;42.522;27.458;2024-01-15T08:08:43;3.00;;;2.23;;
23418;SDS011;11882;42.522;27.458;2024-01-15T08:11:10;2.80;;;2.60;;
23418;SDS011;11882;42.522;27.458;2024-01-15T08:13:37;4.37;;;3.43;;
23418;SDS011;11882;42.522;27.458;2024-01-15T08:16:05;10.57;;;4.87;;
23418;SDS011;11882;42.522;27.458;2024-01-15T08:18:32;4.73;;;2.97;;
23418;SDS011;11882;42.522;27.458;2024-01-15T08:20:59;5.13;;;3.33;;
23418;SDS011;11882;42.522;27.458;2024-01-15T08:23:29;4.00;;;3.60;;
23418;SDS011;11882;42.522;27.458;2024-01-15T08:25:56;3.80;;;3.37;;
23418;SDS011;11882;42.522;27.458;2024-01-15T08:28:24;4.00;;;3.03;;
23418;SDS011;11882;42.522;27.458;2024-01-15T08:30:51;3.33;;;2.57;;
23418;SDS011;11882;42.522;27.458;2024-01-15T08:33:18;4.33;;;3.03;;
23418;SDS011;11882;42.522;27.458;2024-01-15T08:35:45;8.13;;;4.67;;
23418;SDS011;11882;42.522;27.458;2024-01-15T08:38:12;7.63;;;5.87;;
23418;SDS011;11882;42.522;27.458;2024-01-15T08:40:41;6.03;;;5.10;;
23418;SDS011;11882;42.522;27.458;2024-01-15T08:43:08;8.13;;;6.83;;
23418;SDS011;11882;42.522;27.458;2024-01-15T08:45:35;8.30;;;4.87;;
23418;SDS011;11882;42.522;27.458;2024-01-15T08:48:03;6.63;;;5.47;;
23418;SDS011;11882;42.522;27.458;2024-01-15T08:50:30;10.90;;;7.40;;
23418;SDS011;11882;42.522;27.458;2024-01-15T08:52:59;5.00;;;4.17;;
23418;SDS011;11882;42.522;27.458;2024-01-15T08:55:26;6.00;;;4.63;;
23418;SDS011;11882;42.522;27.458;2024-01-15T08:57:55;13.10;;;8.20;;
23418;SDS011;11882;42.522;27.458;2024-01-15T09:00:22;7.93;;;6.30;;
23418;SDS011;11882;42.522;27.458;2024-01-15T09:02:49;7.50;;;5.37;;
23418;SDS011;11882;42.522;27.458;2024-01-15T09:05:16;16.20;;;9.00;;
23418;SDS011;11882;42.522;27.458;2024-01-15T09:07:43;7.83;;;5.43;;
23418;SDS011;11882;42.522;27.458;2024-01-15T09:10:11;7.30;;;5.63;;
23418;SDS011;11882;42.522;27.458;2024-01-15T09:12:38;7.13;;;5.80;;
23418;SDS011;11882;42.522;27.458;2024-01-15T09:15:07;12.40;;;7.63;;
23418;SDS011;11882;42.522;27.458;2024-01-15T09:17:35;17.30;;;9.63;;
23418;SDS011;11882;42.522;27.458;2024-01-15T09:20:02;8.70;;;4.93;;
23418;SDS011;11882;42.522;27.458;2024-01-15T09:22:30;5.80;;;5.30;;
23418;SDS011;11882;42.522;27.458;2024-01-15T09:24:58;11.70;;;7.43;;
23418;SDS011;11882;42.522;27.458;2024-01-15T09:27:25;12.60;;;9.10;;
23418;SDS011;11882;42.522;27.458;2024-01-15T09:29:53;10.17;;;6.00;;
23418;SDS011;11882;42.522;27.458;2024-01-15T09:32:21;7.17;;;5.50;;
23418;SDS011;11882;42.522;27.458;2024-01-15T09:34:49;7.20;;;6.50;;
23418;SDS011;11882;42.522;27.458;2024-01-15T09:37:16;10.10;;;7.70;;
23418;SDS011;11882;42.522;27.458;2024-01-15T09:39:43;4.30;;;3.57;;
23418;SDS011;11882;42.522;27.458;2024-01-15T09:42:10;5.90;;;4.37;;
23418;SDS011;11882;42.522;27.458;2024-01-15T09:44:38;5.97;;;4.97;;
23418;SDS011;11882;42.522;27.458;2024-01-15T09:47:06;6.90;;;4.53;;
23418;SDS011;11882;42.522;27.458;2024-01-15T09:49:35;8.13;;;5.60;;
23418;SDS011;11882;42.522;27.458;2024-01-15T09:52:04;4.40;;;3.30;;
23418;SDS011;11882;42.522;27.458;2024-01-15T09:54:32;4.97;;;4.47;;
23418;SDS011;11882;42.522;27.458;2024-01-15T09:57:00;4.20;;;3.07;;
23418;SDS011;11882;42.522;27.458;2024-01-15T09:59:27;11.40;;;6.77;;
23418;SDS011;11882;42.522;27.458;2024-01-15T10:01:55;7.10;;;4.47;;
23418;SDS011;11882;42.522;27.458;2024-01-15T10:04:23;6.80;;;5.10;;
23418;SDS011;11882;42.522;27.458;2024-01-15T10:06:52;5.87;;;5.27;;
23418;SDS011;11882;42.522;27.458;2024-01-15T10:09:20;7.17;;;3.87;;
23418;SDS011;11882;42.522;27.458;2024-01-15T10:11:48;5.30;;;4.80;;
23418;SDS011;11882;42.522;27.458;2024-01-15T10:14:15;4.23;;;3.83;;
23418;SDS011;11882;42.522;27.458;2024-01-15T10:16:43;5.50;;;3.10;;
23418;SDS011;11882;42.522;27.458;2024-01-15T10:19:10;3.83;;;3.53;;
23418;SDS011;11882;42.522;27.458;2024-01-15T10:21:37;8.33;;;5.67;;
23418;SDS011;11882;42.522;27.458;2024-01-15T10:24:06;7.07;;;5.23;;
23418;SDS011;11882;42.522;27.458;2024-01-15T10:26:33;7.97;;;6.77;;
23418;SDS011;11882;42.522;27.458;2024-01-15T10:29:01;9.87;;;5.80;;
23418;SDS011;11882;42.522;27.458;2024-01-15T10:31:28;9.33;;;5.83;;
23418;SDS011;11882;42.522;27.458;2024-01-15T10:33:56;6.03;;;4.77;;
23418;SDS011;11882;42.522;27.458;2024-01-15T10:36:38;10.73;;;5.97;;
23418;SDS011;11882;42.522;27.458;2024-01-15T10:39:07;5.13;;;4.63;;
23418;SDS011;11882;42.522;27.458;2024-01-15T10:41:35;12.13;;;8.10;;
23418;SDS011;11882;42.522;27.458;2024-01-15T10:44:02;7.23;;;6.57;;
23418;SDS011;11882;42.522;27.458;2024-01-15T10:46:29;8.10;;;6.20;;
23418;SDS011;11882;42.522;27.458;2024-01-15T10:48:58;5.27;;;4.07;;
23418;SDS011;11882;42.522;27.458;2024-01-15T10:51:25;10.80;;;6.47;;
23418;SDS011;11882;42.522;27.458;2024-01-15T10:53:53;13.33;;;6.37;;
23418;SDS011;11882;42.522;27.458;2024-01-15T10:56:23;8.50;;;5.97;;
23418;SDS011;11882;42.522;27.458;2024-01-15T10:58:52;7.27;;;5.60;;
23418;SDS011;11882;42.522;27.458;2024-01-15T11:01:21;13.00;;;5.67;;
23418;SDS011;11882;42.522;27.458;2024-01-15T11:03:48;8.57;;;5.53;;
23418;SDS011;11882;42.522;27.458;2024-01-15T11:06:16;4.73;;;4.20;;
23418;SDS011;11882;42.522;27.458;2024-01-15T11:08:45;5.17;;;4.70;;
23418;SDS011;11882;42.522;27.458;2024-01-15T11:11:13;8.40;;;6.07;;
23418;SDS011;11882;42.522;27.458;2024-01-15T11:13:41;6.67;;;5.73;;
23418;SDS011;11882;42.522;27.458;2024-01-15T11:16:10;27.70;;;6.30;;
23418;SDS011;11882;42.522;27.458;2024-01-15T11:18:39;6.60;;;4.43;;
23418;SDS011;11882;42.522;27.458;2024-01-15T11:21:20;6.93;;;5.60;;
23418;SDS011;11882;42.522;27.458;2024-01-15T11:23:49;9.40;;;4.43;;
23418;SDS011;11882;42.522;27.458;2024-01-15T11:26:27;5.17;;;4.67;;
23418;SDS011;11882;42.522;27.458;2024-01-15T11:29:00;8.47;;;5.33;;
23418;SDS011;11882;42.522;27.458;2024-01-15T11:31:29;8.73;;;7.37;;
23418;SDS011;11882;42.522;27.458;2024-01-15T11:34:16;7.10;;;6.07;;
23418;SDS011;11882;42.522;27.458;2024-01-15T11:39:39;5.57;;;5.03;;
23418;SDS011;11882;42.522;27.458;2024-01-15T11:42:07;6.23;;;3.20;;
23418;SDS011;11882;42.522;27.458;2024-01-15T11:44:37;10.63;;;8.03;;
23418;SDS011;11882;42.522;27.458;2024-01-15T11:47:05;8.87;;;5.07;;
23418;SDS011;11882;42.522;27.458;2024-01-15T11:49:42;6.20;;;4.27;;
23418;SDS011;11882;42.522;27.458;2024-01-15T11:52:33;3.67;;;3.30;;
23418;SDS011;11882;42.522;27.458;2024-01-15T11:55:07;7.93;;;5.47;;
23418;SDS011;11882;42.522;27.458;2024-01-15T11:57:43;11.47;;;6.37;;
23418;SDS011;11882;42.522;27.458;2024-01-15T12:00:15;8.43;;;4.37;;
23418;SDS011;11882;42.522;27.458;2024-01-15T12:02:43;11.27;;;5.30;;
23418;SDS011;11882;42.522;27.458;2024-01-15T12:05:12;8.27;;;3.93;;
23418;SDS011;11882;42.522;27.458;2024-01-15T12:07:40;9.50;;;5.23;;
23418;SDS011;11882;42.522;27.458;2024-01-15T12:10:10;3.20;;;2.93;;
23418;SDS011;11882;42.522;27.458;2024-01-15T12:12:41;6.67;;;4.53;;
23418;SDS011;11882;42.522;27.458;2024-01-15T12:15:19;9.33;;;5.80;;
23418;SDS011;11882;42.522;27.458;2024-01-15T12:17:46;9.50;;;5.07;;
23418;SDS011;11882;42.522;27.458;2024-01-15T12:20:14;14.17;;;5.70;;
23418;SDS011;11882;42.522;27.458;2024-01-15T12:22:42;7.27;;;5.43;;
23418;SDS011;11882;42.522;27.458;2024-01-15T12:25:09;3.77;;;3.43;;
23418;SDS011;11882;42.522;27.458;2024-01-15T12:27:36;6.07;;;4.27;;
23418;SDS011;11882;42.522;27.458;2024-01-15T12:30:04;5.07;;;4.57;;
23418;SDS011;11882;42.522;27.458;2024-01-15T12:32:34;6.90;;;5.17;;
23418;SDS011;11882;42.522;27.458;2024-01-15T12:35:02;4.03;;;3.37;;
23418;SDS011;11882;42.522;27.458;2024-01-15T12:37:30;7.83;;;5.83;;
23418;SDS011;11882;42.522;27.458;2024-01-15T12:39:58;5.17;;;4.70;;
23418;SDS011;11882;42.522;27.458;2024-01-15T12:42:25;9.50;;;4.53;;
23418;SDS011;11882;42.522;27.458;2024-01-15T12:44:55;5.87;;;4.80;;
23418;SDS011;11882;42.522;27.458;2024-01-15T12:47:23;9.43;;;5.47;;
23418;SDS011;11882;42.522;27.458;2024-01-15T12:49:52;8.60;;;4.87;;
23418;SDS011;11882;42.522;27.458;2024-01-15T12:52:20;9.00;;;6.70;;
23418;SDS011;11882;42.522;27.458;2024-01-15T12:54:48;7.67;;;6.90;;
23418;SDS011;11882;42.522;27.458;2024-01-15T12:57:15;10.00;;;6.43;;
23418;SDS011;11882;42.522;27.458;2024-01-15T12:59:42;12.23;;;7.83;;
23418;SDS011;11882;42.522;27.458;2024-01-15T13:02:10;13.00;;;8.53;;
23418;SDS011;11882;42.522;27.458;2024-01-15T13:04:38;9.60;;;8.30;;
23418;SDS011;11882;42.522;27.458;2024-01-15T13:07:07;8.97;;;6.40;;
23418;SDS011;11882;42.522;27.458;2024-01-15T13:09:34;9.50;;;6.37;;
23418;SDS011;11882;42.522;27.458;2024-01-15T13:12:02;8.67;;;5.70;;
23418;SDS011;11882;42.522;27.458;2024-01-15T13:14:30;10.33;;;7.10;;
23418;SDS011;11882;42.522;27.458;2024-01-15T13:16:58;6.03;;;4.03;;
23418;SDS011;11882;42.522;27.458;2024-01-15T13:19:25;5.63;;;4.83;;
23418;SDS011;11882;42.522;27.458;2024-01-15T13:21:53;8.57;;;4.00;;
23418;SDS011;11882;42.522;27.458;2024-01-15T13:24:21;5.33;;;4.03;;
23418;SDS011;11882;42.522;27.458;2024-01-15T13:26:49;21.23;;;4.20;;
23418;SDS011;11882;42.522;27.458;2024-01-15T13:29:16;6.43;;;4.70;;
23418;SDS011;11882;42.522;27.458;2024-01-15T13:31:43;4.60;;;4.10;;
23418;SDS011;11882;42.522;27.458;2024-01-15T13:34:11;3.23;;;2.93;;
23418;SDS011;11882;42.522;27.458;2024-01-15T13:36:39;4.47;;;3.50;;
23418;SDS011;11882;42.522;27.458;2024-01-15T13:39:06;6.70;;;4.43;;
23418;SDS011;11882;42.522;27.458;2024-01-15T13:41:36;4.20;;;3.80;;
23418;SDS011;11882;42.522;27.458;2024-01-15T13:44:03;5.37;;;3.57;;
23418;SDS011;11882;42.522;27.458;2024-01-15T13:46:30;3.37;;;3.10;;
23418;SDS011;11882;42.522;27.458;2024-01-15T13:48:59;7.43;;;4.87;;
23418;SDS011;11882;42.522;27.458;2024-01-15T13:51:27;5.93;;;3.97;;
23418;SDS011;11882;42.522;27.458;2024-01-15T13:53:55;3.23;;;2.93;;
23418;SDS011;11882;42.522;27.458;2024-01-15T13:56:22;8.87;;;4.67;;
23418;SDS011;11882;42.522;27.458;2024-01-15T13:58:51;7.07;;;4.23;;
23418;SDS011;11882;42.522;27.458;2024-01-15T14:01:18;9.20;;;4.07;;
23418;SDS011;11882;42.522;27.458;2024-01-15T14:03:46;4.77;;;3.60;;
23418;SDS011;11882;42.522;27.458;2024-01-15T14:06:13;5.50;;;4.03;;
23418;SDS011;11882;42.522;27.458;2024-01-15T14:08:40;3.43;;;3.13;;
23418;SDS011;11882;42.522;27.458;2024-01-15T14:11:07;5.63;;;4.80;;
23418;SDS011;11882;42.522;27.458;2024-01-15T14:13:35;5.50;;;4.37;;
23418;SDS011;11882;42.522;27.458;2024-01-15T14:16:03;4.60;;;3.67;;
23418;SDS011;11882;42.522;27.458;2024-01-15T14:18:30;8.03;;;3.37;;
23418;SDS011;11882;42.522;27.458;2024-01-15T14:20:57;6.43;;;5.10;;
23418;SDS011;11882;42.522;27.458;2024-01-15T14:23:25;6.87;;;4.53;;
23418;SDS011;11882;42.522;27.458;2024-01-15T14:25:52;7.03;;;4.33;;
23418;SDS011;11882;42.522;27.458;2024-01-15T14:28:19;3.07;;;2.77;;
23418;SDS011;11882;42.522;27.458;2024-01-15T14:30:48;10.27;;;6.47;;
23418;SDS011;11882;42.522;27.458;2024-01-15T14:33:18;6.07;;;4.63;;
23418;SDS011;11882;42.522;27.458;2024-01-15T14:35:45;3.67;;;3.23;;
23418;SDS011;11882;42.522;27.458;2024-01-15T14:38:13;5.07;;;4.30;;
23418;SDS011;11882;42.522;27.458;2024-01-15T14:40:40;3.73;;;2.90;;